Terminal Aerodrome Forecast
Issued by NWS Louisville, KY

Home | Current Version | Previous Version | Text Only | Print | Product List | Glossary On
Versions: 1 2 3 4 5 6 7 8 9 10 11 12 13
000
FTUS43 KLMK 211726
TAFSDF
TAF
KSDF 211726Z 2118/2224 19005KT P6SM SCT250
     FM220800 15004KT P6SM SCT250 WS015/19038KT
     FM221500 16013G20KT P6SM SCT250=

USA.gov is the U.S. government's official web portal to all federal, state and local government web resources and services.